Friesach, Austria
Current Conditions -  °F | °C
As of 3:50 PM on Tuesday 21 Oct 2014 (Local Time) from LOWK Reporting Station
Scattered Clouds Scattered Clouds  
Wind Chill: 68°   Ceiling: Unl
Heat Index: 68°   Visibility: 6mi
Dew Point: 54°   Wind: 3mph
Humidity: 60%   Direction: 70°ENE
Pressure: 29.8"   Gusts: NA
Location:  46.95°N, 14.4°E
Report Text: LOWK 211350Z 07003KT 030V140 9999 FEW040 SCT300 20/12 Q1009 NOSIG
Loading
Personal Weather Stations






























Interactive Weather Map
Tropical Storm Tracking
New forecast layout! Learn more

10-Day Weather Forecast

Advertisements
Track Severe Weather on mobile